createdAt,value
2019-02-21T01:23:14.382Z,81.40
2019-02-21T01:34:32.084Z,81.10
2019-02-21T01:39:37.009Z,81.10
2019-02-21T01:54:01.805Z,82.60
2019-02-21T01:56:33.209Z,83.80
2019-02-21T01:59:04.506Z,82.50
2019-02-21T02:01:35.724Z,82.30
2019-02-21T02:04:07.040Z,84.00
2019-02-21T02:06:38.828Z,83.50
2019-02-21T02:09:12.818Z,84.30
2019-02-21T02:11:44.191Z,82.60
2019-02-21T02:14:15.535Z,84.10
2019-02-21T02:16:46.743Z,83.80
2019-02-21T02:19:18.135Z,82.80
2019-02-21T02:21:49.886Z,83.50
2019-02-21T02:24:21.285Z,82.50
2019-02-21T02:26:52.955Z,82.60
2019-02-21T02:29:24.413Z,83.20
2019-02-21T02:34:26.461Z,85.60
2019-02-21T02:36:58.212Z,83.90
2019-02-21T02:39:30.659Z,83.50
2019-02-21T02:42:01.958Z,81.40
2019-02-21T02:44:33.809Z,81.40
2019-02-21T02:47:05.278Z,84.00
2019-02-21T02:49:37.916Z,81.60
2019-02-21T02:52:09.323Z,83.00
2019-02-21T02:54:40.933Z,84.40
2019-02-21T02:57:12.249Z,81.60
2019-02-21T02:59:43.631Z,83.80
2019-02-21T03:02:15.002Z,84.20
2019-02-21T03:04:46.552Z,84.80
2019-02-21T03:07:18.045Z,81.60
2019-02-21T03:09:49.293Z,83.70
2019-02-21T03:12:20.655Z,84.70
2019-02-21T03:14:51.974Z,85.80
2019-02-21T03:17:23.694Z,81.70
2019-02-21T03:19:55.296Z,81.70
2019-02-21T03:22:26.786Z,82.70
2019-02-21T03:24:58.062Z,83.00
2019-02-21T03:27:29.499Z,81.70
2019-02-21T03:30:00.911Z,81.70
2019-02-21T03:32:32.795Z,83.60
2019-02-21T03:35:04.162Z,84.50
2019-02-21T03:37:36.995Z,81.90
2019-02-21T03:40:08.947Z,81.90
2019-02-21T03:42:40.491Z,82.80
2019-02-21T03:45:11.962Z,83.00
2019-02-21T03:47:44.889Z,82.10
2019-02-21T03:50:16.140Z,82.00
2019-02-21T03:52:47.550Z,84.70
2019-02-21T03:55:19.460Z,82.20
2019-02-21T03:57:50.870Z,82.20
2019-02-21T04:00:22.122Z,84.80
2019-02-21T04:02:53.650Z,84.20
2019-02-21T04:05:24.902Z,85.70
2019-02-21T04:07:56.264Z,82.20
2019-02-21T04:10:27.814Z,84.30
2019-02-21T04:12:59.568Z,84.40
2019-02-21T04:15:30.971Z,82.10
2019-02-21T04:18:02.417Z,84.60
2019-02-21T04:20:33.691Z,82.20
2019-02-21T04:23:06.531Z,82.30
2019-02-21T04:25:38.554Z,82.40
2019-02-21T04:28:09.874Z,85.20
2019-02-21T04:30:41.212Z,84.80
2019-02-21T04:33:12.566Z,82.60
2019-02-21T04:35:43.983Z,82.60
2019-02-21T04:38:15.423Z,82.80
2019-02-21T04:40:46.799Z,84.90
2019-02-21T04:43:18.120Z,83.00
2019-02-21T04:45:49.562Z,83.20
2019-02-21T04:48:20.970Z,84.50
2019-02-21T04:50:54.456Z,84.70
2019-02-21T04:53:25.570Z,83.30
2019-02-21T04:55:56.848Z,83.30
2019-02-21T04:58:28.209Z,83.40
2019-02-21T05:00:59.807Z,83.40
2019-02-21T05:03:32.456Z,83.50
2019-02-21T05:06:05.641Z,83.40
2019-02-21T05:08:36.903Z,83.40
2019-02-21T05:11:08.181Z,84.90
2019-02-21T05:13:39.593Z,83.40
2019-02-21T05:16:10.958Z,83.40
2019-02-21T05:18:42.437Z,83.40
2019-02-21T05:21:14.047Z,83.40
2019-02-21T05:23:48.147Z,83.40
2019-02-21T05:26:25.089Z,83.40
2019-02-21T05:28:56.703Z,83.40
2019-02-21T05:31:39.331Z,83.30
2019-02-21T05:34:18.148Z,85.90
2019-02-21T05:37:08.499Z,83.40
2019-02-21T05:40:03.230Z,83.40
2019-02-21T05:42:46.571Z,83.60
2019-02-21T05:45:39.163Z,83.50
2019-02-21T05:48:24.021Z,83.50
2019-02-21T05:51:17.874Z,83.50
2019-02-21T05:54:12.699Z,83.40
2019-02-21T05:56:51.884Z,83.40
2019-02-21T05:59:54.103Z,86.10
2019-02-21T06:02:39.341Z,83.40
2019-02-21T06:05:32.355Z,83.50
2019-02-21T06:08:22.727Z,83.50
2019-02-21T06:11:04.262Z,83.40
2019-02-21T06:13:48.816Z,83.90
2019-02-21T06:16:39.221Z,84.20
2019-02-21T06:19:29.931Z,84.50
2019-02-21T06:22:26.612Z,88.70
2019-02-21T06:25:08.619Z,84.90
2019-02-21T06:27:51.113Z,86.90
2019-02-21T06:30:44.397Z,85.10
2019-02-21T06:33:15.695Z,85.40
2019-02-21T06:35:46.990Z,85.20
2019-02-21T06:38:19.103Z,85.20
2019-02-21T06:40:50.424Z,85.20
2019-02-21T06:43:22.358Z,85.20
2019-02-21T06:45:53.668Z,87.20
2019-02-21T06:48:25.440Z,87.30
2019-02-21T06:50:57.867Z,85.20
2019-02-21T06:53:29.341Z,85.30
2019-02-21T06:56:01.054Z,85.40
2019-02-21T06:58:32.695Z,85.40
2019-02-21T07:01:04.077Z,87.80
2019-02-21T07:03:36.051Z,86.80
2019-02-21T07:06:07.632Z,85.60
2019-02-21T07:08:40.166Z,87.60
2019-02-21T07:11:11.597Z,88.60
2019-02-21T07:13:43.224Z,85.70
2019-02-21T07:16:16.049Z,85.80
2019-02-21T07:18:47.343Z,85.90
2019-02-21T07:21:18.641Z,85.90
2019-02-21T07:23:50.401Z,87.10
2019-02-21T07:26:21.977Z,86.00
2019-02-21T07:28:53.455Z,86.00
2019-02-21T07:31:29.041Z,86.00
2019-02-21T07:34:01.602Z,86.70
2019-02-21T07:36:36.522Z,87.60
2019-02-21T07:39:18.421Z,86.00
2019-02-21T07:41:43.727Z,86.10
2019-02-21T07:44:14.994Z,86.20
2019-02-21T07:46:46.478Z,86.20
2019-02-21T07:49:17.741Z,86.20
2019-02-21T07:51:49.121Z,86.30
2019-02-21T07:54:20.570Z,86.20
2019-02-21T07:56:52.490Z,86.10
2019-02-21T07:59:24.218Z,86.10
2019-02-21T08:01:55.662Z,86.10
2019-02-21T08:04:26.968Z,86.20
2019-02-21T08:06:58.395Z,86.10
2019-02-21T08:09:29.949Z,86.10
2019-02-21T08:12:01.315Z,86.10
2019-02-21T08:14:33.309Z,85.90
2019-02-21T08:17:04.783Z,85.70
2019-02-21T08:19:36.637Z,85.70
2019-02-21T08:22:08.961Z,87.50
2019-02-21T08:24:43.081Z,85.50
2019-02-21T08:30:28.987Z,85.60
2019-02-21T08:33:03.155Z,85.50
2019-02-21T08:35:34.766Z,85.60
2019-02-21T08:38:07.259Z,85.60
2019-02-21T08:40:39.053Z,85.60
2019-02-21T08:43:10.996Z,85.60
2019-02-21T08:45:43.308Z,87.60
2019-02-21T08:48:14.570Z,85.70
2019-02-21T08:50:45.967Z,85.70
2019-02-21T08:53:17.414Z,85.70
2019-02-21T09:02:04.883Z,86.80
2019-02-21T09:04:35.146Z,85.60
2019-02-21T09:07:07.010Z,86.00
2019-02-21T09:09:40.097Z,85.50
2019-02-21T09:12:11.558Z,85.70
2019-02-21T09:14:43.542Z,85.30
2019-02-21T09:17:16.610Z,87.40
2019-02-21T09:19:47.846Z,85.40
2019-02-21T09:22:20.084Z,85.50
2019-02-21T09:24:52.855Z,85.60
2019-02-21T09:27:24.450Z,85.70
2019-02-21T09:29:57.394Z,85.70
2019-02-21T09:35:42.308Z,85.80
2019-02-21T09:38:13.497Z,85.90
2019-02-21T09:40:44.829Z,85.90
2019-02-21T09:43:16.045Z,87.10
2019-02-21T09:45:47.646Z,86.10
2019-02-21T09:48:19.413Z,86.00
2019-02-21T09:53:54.884Z,85.40
2019-02-21T09:56:30.331Z,86.10
2019-02-21T09:59:00.671Z,86.20
2019-02-21T10:01:32.038Z,86.20
2019-02-21T10:04:03.576Z,86.20
2019-02-21T10:06:35.709Z,86.10
2019-02-21T10:09:07.117Z,86.10
2019-02-21T10:11:38.634Z,86.00
2019-02-21T10:14:10.076Z,86.20
2019-02-21T10:16:41.883Z,86.20
2019-02-21T10:19:13.285Z,86.40
2019-02-21T10:21:46.086Z,86.30
2019-02-21T10:24:17.505Z,86.30
2019-02-21T10:26:50.014Z,86.30
2019-02-21T10:29:21.821Z,86.40
2019-02-21T10:31:53.169Z,86.30
2019-02-21T10:34:24.670Z,86.30
2019-02-21T10:36:57.378Z,86.40
2019-02-21T10:39:28.697Z,86.50
2019-02-21T10:42:00.373Z,86.50
2019-02-21T10:44:32.369Z,86.50
2019-02-21T10:47:03.747Z,86.50
2019-02-21T10:49:36.395Z,86.60
2019-02-21T10:52:07.682Z,86.60
2019-02-21T10:54:39.015Z,86.60
2019-02-21T10:57:11.611Z,86.60
2019-02-21T10:59:46.554Z,86.70
2019-02-21T11:02:16.224Z,86.70
2019-02-21T11:04:54.785Z,86.80
2019-02-21T11:07:21.092Z,86.90
2019-02-21T11:09:52.878Z,86.90
2019-02-21T11:12:24.189Z,86.90
2019-02-21T11:14:56.616Z,87.00
2019-02-21T11:17:27.818Z,87.10
2019-02-21T11:20:00.707Z,87.20
2019-02-21T11:22:33.701Z,87.20
2019-02-21T11:25:05.278Z,87.20
2019-02-21T11:27:37.185Z,87.20
2019-02-21T11:30:11.710Z,87.20
2019-02-21T11:32:44.304Z,87.40
2019-02-21T11:35:16.056Z,87.50
2019-02-21T11:37:47.721Z,87.50
2019-02-21T11:40:19.160Z,87.50
2019-02-21T11:42:51.923Z,87.50
2019-02-21T11:45:23.213Z,87.60
2019-02-21T11:47:54.946Z,87.70
2019-02-21T11:50:27.646Z,87.60
2019-02-21T11:52:59.228Z,87.50
2019-02-21T11:55:31.385Z,87.60
2019-02-21T11:58:02.612Z,87.70
2019-02-21T12:00:34.061Z,87.80
2019-02-21T12:03:06.586Z,87.70
2019-02-21T12:05:38.125Z,87.70
2019-02-21T12:08:09.994Z,87.60
2019-02-21T12:10:42.400Z,87.60
2019-02-21T12:13:15.085Z,87.60
2019-02-21T12:15:46.601Z,87.60
2019-02-21T12:18:18.016Z,87.60
2019-02-21T12:20:50.834Z,87.60
2019-02-21T12:23:22.123Z,87.70
2019-02-21T12:25:53.845Z,87.80
2019-02-21T12:28:25.153Z,87.70
2019-02-21T12:30:56.690Z,88.50
2019-02-21T12:33:27.976Z,87.70
2019-02-21T12:35:59.632Z,87.70
2019-02-21T12:38:32.507Z,87.90
2019-02-21T12:41:03.872Z,88.00
2019-02-21T12:43:35.517Z,88.00
2019-02-21T12:46:07.029Z,88.00
2019-02-21T12:48:39.870Z,88.00
2019-02-21T12:51:11.366Z,88.10
2019-02-21T12:53:45.705Z,87.90
2019-02-21T12:56:17.164Z,88.00
2019-02-21T12:58:48.622Z,88.00
2019-02-21T13:01:20.079Z,88.00
2019-02-21T13:03:51.406Z,88.10
2019-02-21T13:06:22.859Z,88.00
2019-02-21T13:08:54.976Z,88.10
2019-02-21T13:11:28.155Z,88.10
2019-02-21T13:13:59.584Z,88.20
2019-02-21T13:16:31.150Z,88.70
2019-02-21T13:19:04.033Z,88.30
2019-02-21T13:21:35.887Z,88.50
2019-02-21T13:24:07.472Z,88.60
2019-02-21T13:26:39.234Z,88.70
2019-02-21T13:29:10.757Z,88.80
2019-02-21T13:31:42.051Z,88.80
2019-02-21T13:34:13.638Z,88.80
2019-02-21T13:36:45.868Z,88.90
2019-02-21T13:39:18.320Z,89.00
2019-02-21T13:41:49.795Z,89.00
2019-02-21T13:44:21.538Z,89.00
2019-02-21T13:46:54.229Z,89.20
2019-02-21T13:49:25.701Z,89.40
2019-02-21T13:51:57.010Z,89.30
2019-02-21T13:54:28.483Z,89.40
2019-02-21T13:57:00.043Z,89.60
2019-02-21T13:59:31.794Z,89.60
2019-02-21T14:02:03.147Z,89.70
2019-02-21T14:04:34.379Z,89.90
2019-02-21T14:07:05.661Z,90.00
2019-02-21T14:09:37.964Z,90.10
2019-02-21T14:12:09.529Z,90.00
2019-02-21T14:14:42.558Z,90.00
2019-02-21T14:17:15.082Z,90.00
2019-02-21T14:19:46.645Z,90.00
2019-02-21T14:22:18.467Z,90.00
2019-02-21T14:24:49.717Z,90.00
2019-02-21T14:27:21.675Z,90.00
2019-02-21T14:29:53.313Z,90.00
2019-02-21T14:32:24.764Z,90.00
2019-02-21T14:34:56.325Z,90.00
2019-02-21T14:37:27.741Z,90.00
2019-02-21T14:39:59.041Z,90.00
2019-02-21T14:42:34.157Z,90.00
2019-02-21T14:45:06.219Z,90.00
2019-02-21T14:47:39.190Z,90.10
2019-02-21T14:50:11.901Z,90.10
2019-02-21T14:52:44.707Z,90.10
2019-02-21T14:55:16.366Z,90.10
2019-02-21T14:57:47.888Z,90.10
2019-02-21T15:00:20.970Z,90.10
2019-02-21T15:02:52.643Z,90.10
2019-02-21T15:05:24.006Z,90.20
2019-02-21T15:07:56.965Z,90.20
2019-02-21T15:10:28.532Z,90.20
2019-02-21T15:13:00.195Z,90.30
2019-02-21T15:15:31.625Z,90.30
2019-02-21T15:18:07.602Z,90.20
2019-02-21T15:20:37.225Z,90.30
2019-02-21T15:23:08.877Z,90.30
2019-02-21T15:25:40.352Z,90.30
2019-02-21T15:28:13.805Z,90.30
2019-02-21T15:30:45.164Z,90.30
2019-02-21T15:33:16.794Z,90.30
2019-02-21T15:35:48.157Z,90.30
2019-02-21T15:38:20.415Z,90.30
2019-02-21T15:40:52.767Z,90.30
2019-02-21T15:43:24.634Z,90.30
2019-02-21T15:45:55.949Z,90.30
2019-02-21T15:48:27.553Z,90.30
2019-02-21T15:50:59.394Z,90.40
2019-02-21T15:59:09.787Z,90.30
2019-02-21T16:01:47.507Z,90.40
2019-02-21T16:04:14.739Z,90.40
2019-02-21T16:06:51.731Z,90.40
2019-02-21T16:09:19.849Z,90.40
2019-02-21T16:11:51.424Z,90.50
2019-02-21T16:14:22.865Z,90.50
2019-02-21T16:16:54.341Z,90.50
2019-02-21T16:19:25.677Z,90.50
2019-02-21T16:21:57.139Z,90.50
2019-02-21T16:24:28.462Z,90.50
2019-02-21T16:27:01.245Z,90.50
2019-02-21T16:29:34.004Z,90.50
2019-02-21T16:32:05.344Z,90.50
2019-02-21T16:34:36.872Z,90.60
2019-02-21T16:37:08.426Z,90.60
2019-02-21T16:39:42.826Z,90.60
2019-02-21T16:42:14.091Z,90.60
2019-02-21T16:44:45.797Z,90.50
2019-02-21T16:47:17.066Z,90.60
2019-02-21T16:49:48.919Z,90.60
2019-02-21T16:52:20.216Z,90.70
2019-02-21T16:54:51.602Z,91.00
2019-02-21T16:57:23.298Z,91.40
2019-02-21T16:59:54.636Z,91.80
2019-02-21T17:02:26.077Z,92.30
2019-02-21T17:04:57.337Z,92.60
2019-02-21T17:07:28.583Z,92.70
2019-02-21T17:10:00.743Z,92.80
2019-02-21T17:12:32.402Z,92.90
2019-02-21T17:15:03.763Z,93.00
2019-02-21T17:17:36.660Z,93.00
2019-02-21T17:20:10.931Z,93.10
2019-02-21T17:22:43.359Z,93.10
2019-02-21T17:25:15.509Z,93.10
2019-02-21T17:27:46.758Z,93.20
2019-02-21T17:30:20.073Z,93.10
2019-02-21T17:32:53.534Z,93.10
2019-02-21T17:35:27.686Z,93.10
2019-02-21T17:37:59.702Z,93.10
2019-02-21T17:40:32.087Z,93.10
2019-02-21T17:43:03.349Z,93.10
2019-02-21T17:45:34.744Z,93.10
2019-02-21T17:48:07.844Z,93.10
2019-02-21T17:50:39.627Z,93.10
2019-02-21T17:53:11.386Z,93.10
2019-02-21T17:55:43.056Z,93.10
2019-02-21T17:58:14.371Z,93.10
2019-02-21T18:00:45.842Z,93.20
2019-02-21T18:03:17.033Z,93.10
2019-02-21T18:05:48.414Z,93.20
2019-02-21T18:08:20.217Z,93.20
2019-02-21T18:10:51.677Z,93.10
2019-02-21T18:13:23.009Z,93.20
2019-02-21T18:15:59.225Z,93.10
2019-02-21T18:18:33.012Z,93.10
2019-02-21T18:21:08.155Z,93.80
2019-02-21T18:23:40.625Z,93.10
2019-02-21T18:26:15.565Z,93.60
2019-02-21T18:28:47.217Z,93.10
2019-02-21T18:31:26.154Z,93.00
2019-02-21T18:33:58.764Z,93.00
2019-02-21T18:36:30.536Z,93.00
2019-02-21T18:39:02.227Z,93.00
2019-02-21T18:41:35.613Z,93.00
2019-02-21T18:44:07.192Z,93.00
2019-02-21T18:46:38.607Z,93.00
2019-02-21T18:49:09.876Z,92.90
2019-02-21T18:51:41.247Z,92.90
2019-02-21T18:54:12.638Z,92.90
2019-02-21T18:56:44.034Z,92.90
2019-02-21T18:59:15.707Z,92.90
2019-02-21T19:01:47.150Z,92.80
2019-02-21T19:04:25.104Z,93.20
2019-02-21T19:06:56.698Z,92.80
2019-02-21T19:09:29.728Z,92.80
2019-02-21T19:12:01.249Z,93.10
2019-02-21T19:14:32.815Z,92.80
2019-02-21T19:17:05.586Z,92.70
2019-02-21T19:19:38.591Z,92.80
2019-02-21T19:22:09.991Z,92.80
2019-02-21T19:24:41.672Z,92.70
2019-02-21T19:27:13.175Z,92.80
2019-02-21T19:29:46.889Z,93.30
2019-02-21T19:32:18.232Z,92.80
2019-02-21T19:34:50.443Z,92.70
2019-02-21T19:37:21.839Z,92.70
2019-02-21T19:39:57.451Z,92.70
2019-02-21T19:42:28.773Z,92.80
2019-02-21T19:45:01.940Z,92.70
2019-02-21T19:47:34.366Z,92.70
2019-02-21T19:50:05.848Z,92.70
2019-02-21T19:52:38.703Z,92.60
2019-02-21T19:55:11.906Z,92.60
2019-02-21T19:57:47.130Z,92.60
2019-02-21T20:00:20.154Z,92.50
2019-02-21T20:02:51.762Z,92.50
2019-02-21T20:05:25.894Z,92.60
2019-02-21T20:08:07.865Z,92.60
2019-02-21T20:10:31.126Z,92.50
2019-02-21T20:13:10.619Z,92.50
2019-02-21T20:15:42.281Z,92.50
2019-02-21T20:18:15.443Z,92.50
2019-02-21T20:20:46.941Z,92.50
2019-02-21T20:23:18.518Z,93.00
2019-02-21T20:25:51.120Z,92.40
2019-02-21T20:28:24.314Z,92.40
2019-02-21T20:30:55.643Z,92.80
2019-02-21T20:33:29.448Z,92.30
2019-02-21T20:36:03.466Z,92.30
2019-02-21T20:38:36.771Z,92.30
2019-02-21T20:41:13.253Z,92.30
2019-02-21T20:43:50.723Z,92.20
2019-02-21T20:46:24.629Z,92.10
2019-02-21T20:48:56.090Z,91.90
2019-02-21T20:51:27.926Z,91.70
2019-02-21T20:54:01.411Z,91.60
2019-02-21T20:56:32.937Z,91.70
2019-02-21T20:59:05.253Z,91.40
2019-02-21T21:01:43.175Z,91.60
2019-02-21T21:04:16.014Z,91.90
2019-02-21T21:06:47.391Z,91.70
2019-02-21T21:09:22.778Z,91.70
2019-02-21T21:11:54.391Z,91.70
2019-02-21T21:14:25.934Z,91.70
2019-02-21T21:16:58.393Z,91.70
2019-02-21T21:19:32.002Z,92.20
2019-02-21T21:22:06.228Z,92.70
2019-02-21T21:27:11.204Z,92.90
2019-02-21T21:29:45.270Z,92.60
2019-02-21T21:32:16.559Z,92.10
2019-02-21T21:34:48.077Z,92.20
2019-02-21T21:37:26.319Z,92.70
2019-02-21T21:39:59.234Z,93.40
2019-02-21T21:45:02.750Z,93.10
2019-02-21T21:50:06.853Z,92.80
2019-02-21T21:52:39.541Z,92.60
2019-02-21T21:55:14.819Z,93.10
2019-02-21T22:07:52.020Z,93.70
2019-02-21T22:10:25.419Z,92.10
2019-02-21T22:15:27.501Z,94.10
2019-02-21T22:17:58.971Z,94.00
2019-02-21T22:20:30.759Z,93.70
2019-02-21T22:23:02.384Z,95.10
2019-02-21T22:42:20.805Z,94.00
2019-02-21T22:47:33.564Z,94.40
2019-02-21T22:50:15.533Z,94.80
2019-02-21T22:56:04.117Z,94.90
2019-02-21T22:58:27.715Z,94.80
2019-02-21T23:01:26.106Z,95.00
2019-02-21T23:04:16.120Z,94.40
2019-02-21T23:07:07.287Z,93.90
2019-02-21T23:15:16.751Z,95.30
2019-02-21T23:17:48.241Z,95.10
2019-02-21T23:20:20.408Z,94.50
2019-02-21T23:22:51.831Z,95.00
2019-02-21T23:27:54.960Z,92.90
2019-02-21T23:30:26.559Z,93.30
2019-02-21T23:32:58.096Z,91.80
2019-02-21T23:35:31.651Z,90.50
2019-02-21T23:38:07.958Z,95.90
2019-02-21T23:43:10.871Z,98.40
2019-02-21T23:45:43.429Z,98.20
2019-02-21T23:48:15.726Z,96.30
2019-02-21T23:55:49.031Z,95.00
2019-02-21T23:58:21.741Z,95.10
